Time;durP1;ratioP1;P1;durP2;ratioP2;P2;SDS_P1;SDS_P2;PMS_P1;PMS_P2;Temp;Humidity;BMP_temperature;BMP_pressure;BME280_temperature;BME280_humidity;BME280_pressure;Samples;Min_cycle;Max_cycle;Signal;HPM_P1;HPM_P2
2022/04/26 03:37:41;;;;;;;;;;;;;;;10.31;100.00;98522.58;1659271;84;20433;-67
2022/04/26 03:40:09;;;;;;;;;;;;;;;10.33;100.00;98523.05;1656163;86;20105;-67
2022/04/26 03:42:37;;;;;;;;;;;;;;;10.34;100.00;98523.27;1600468;88;20567;-67
2022/04/26 03:45:06;;;;;;;;;;;;;;;10.34;100.00;98520.53;1598495;88;20202;-67
2022/04/26 03:47:33;;;;;;;;;;;;;;;10.36;100.00;98529.22;1603457;88;21287;-67
2022/04/26 03:49:59;;;;;;;;;;;;;;;10.38;100.00;98535.17;1596926;89;20118;-67
2022/04/26 03:52:27;;;;;;;;;;;;;;;10.40;100.00;98541.09;1597625;89;20214;-67
2022/04/26 03:54:54;;;;;;;;;;;;;;;10.41;100.00;98536.41;1598802;89;20403;-66
2022/04/26 03:57:21;;;;;;;;;;;;;;;10.43;100.00;98528.64;1602667;88;20107;-66
2022/04/26 03:59:47;;;;;;;;;;;;;;;10.51;100.00;98529.12;1599592;89;21175;-68
2022/04/26 04:02:16;;;;;;;;;;;;;;;10.55;100.00;98534.16;1628712;87;20768;-69
2022/04/26 04:04:45;;;;;;;;;;;;;;;10.55;100.00;98530.05;1632952;86;20176;-65
2022/04/26 04:07:12;;;;;;;;;;;;;;;10.56;100.00;98531.08;1599744;89;20537;-66
2022/04/26 04:09:39;;;;;;;;;;;;;;;10.59;100.00;98535.88;1628331;87;20089;-71
2022/04/26 04:12:08;;;;;;;;;;;;;;;10.61;100.00;98535.55;1659637;85;21137;-67
2022/04/26 04:14:36;;;;;;;;;;;;;;;10.58;100.00;98545.26;1657652;86;20131;-70
2022/04/26 04:17:03;;;;;;;;;;;;;;;10.60;100.00;98554.53;1661461;86;20146;-69
2022/04/26 04:19:30;;;;;;;;;;;;;;;10.58;100.00;98557.61;1659543;86;20482;-73
2022/04/26 04:21:58;;;;;;;;;;;;;;;10.61;100.00;98562.19;1595241;88;20178;-67
2022/04/26 04:24:24;;;;;;;;;;;;;;;10.61;100.00;98571.22;1595876;88;21120;-70
2022/04/26 04:26:51;;;;;;;;;;;;;;;10.62;100.00;98566.53;1579833;90;20190;-70
2022/04/26 04:29:20;;;;;;;;;;;;;;;10.64;100.00;98576.60;1604917;88;20099;-70
2022/04/26 04:31:47;;;;;;;;;;;;;;;10.63;100.00;98580.48;1638554;87;20103;-70
2022/04/26 04:34:14;;;;;;;;;;;;;;;10.66;100.00;98580.61;1608739;87;20135;-71
2022/04/26 04:36:42;;;;;;;;;;;;;;;10.70;100.00;98584.86;1613922;87;20127;-69
2022/04/26 04:39:08;;;;;;;;;;;;;;;10.73;100.00;98589.66;1612633;87;20112;-72
2022/04/26 04:41:38;;;;;;;;;;;;;;;10.74;100.00;98581.66;1631149;86;20306;-68
2022/04/26 04:44:05;;;;;;;;;;;;;;;10.74;100.00;98583.84;1610170;88;20183;-70
2022/04/26 04:46:34;;;;;;;;;;;;;;;10.77;100.00;98583.73;1606698;88;20103;-69
2022/04/26 04:49:01;;;;;;;;;;;;;;;10.80;100.00;98584.42;1609907;87;21180;-69
2022/04/26 04:51:27;;;;;;;;;;;;;;;10.83;100.00;98588.66;1601223;88;20486;-69
2022/04/26 04:53:54;;;;;;;;;;;;;;;10.85;100.00;98586.38;1606831;88;20192;-69
2022/04/26 04:56:23;;;;;;;;;;;;;;;10.88;100.00;98583.52;1586339;90;20755;-69
2022/04/26 04:58:51;;;;;;;;;;;;;;;10.89;100.00;98590.62;1583395;90;20436;-69
2022/04/26 05:01:17;;;;;;;;;;;;;;;10.92;100.00;98591.31;1584232;89;21168;-69
2022/04/26 05:03:45;;;;;;;;;;;;;;;10.96;100.00;98593.61;1609422;89;20264;-69
2022/04/26 05:06:16;;;;;;;;;;;;;;;11.00;100.00;98595.06;1603920;87;20179;-69
2022/04/26 05:08:45;;;;;;;;;;;;;;;11.02;100.00;98594.95;1620794;87;20124;-69
2022/04/26 05:11:13;;;;;;;;;;;;;;;11.05;100.00;98601.71;1627554;87;20199;-68
2022/04/26 05:13:41;;;;;;;;;;;;;;;11.07;100.00;98609.84;1625889;87;21216;-69
2022/04/26 05:16:09;;;;;;;;;;;;;;;11.13;100.00;98607.10;1627940;87;20484;-68
2022/04/26 05:18:35;;;;;;;;;;;;;;;11.19;100.00;98611.23;1626299;87;20135;-69
2022/04/26 05:21:01;;;;;;;;;;;;;;;11.28;100.00;98614.44;1632684;86;20154;-69
2022/04/26 05:26:13;;;;;;;;;;;;;;;11.42;100.00;98616.28;1657528;86;21713;-69
2022/04/26 05:28:40;;;;;;;;;;;;;;;11.47;100.00;98614.11;1647969;86;20126;-69
2022/04/26 05:31:07;;;;;;;;;;;;;;;11.52;100.00;98613.08;1611157;86;20484;-69
2022/04/26 05:33:33;;;;;;;;;;;;;;;11.60;100.00;98614.87;1631526;86;20167;-68
2022/04/26 05:36:01;;;;;;;;;;;;;;;11.57;100.00;98620.48;1625463;87;20486;-69
2022/04/26 05:38:30;;;;;;;;;;;;;;;11.61;100.00;98626.67;1642210;85;20209;-69
2022/04/26 05:40:56;;;;;;;;;;;;;;;11.68;100.00;98631.82;1599824;88;20205;-69
2022/04/26 05:43:22;;;;;;;;;;;;;;;11.76;100.00;98633.64;1648229;86;20516;-69
2022/04/26 05:45:50;;;;;;;;;;;;;;;11.86;100.00;98621.41;1620770;87;20212;-69
2022/04/26 05:48:18;;;;;;;;;;;;;;;11.87;100.00;98632.06;1652046;86;20138;-69
2022/04/26 05:50:46;;;;;;;;;;;;;;;11.86;100.00;98622.78;1616088;86;20766;-69
2022/04/26 05:53:12;;;;;;;;;;;;;;;11.87;100.00;98629.31;1653944;85;20182;-69
2022/04/26 05:55:40;;;;;;;;;;;;;;;11.88;100.00;98637.78;1647582;86;20473;-69
2022/04/26 05:58:06;;;;;;;;;;;;;;;11.92;100.00;98624.72;1646813;86;20146;-69
2022/04/26 06:00:33;;;;;;;;;;;;;;;11.91;100.00;98630.80;1651321;86;20177;-69
2022/04/26 06:03:01;;;;;;;;;;;;;;;11.96;100.00;98638.01;1634552;86;21134;-69
2022/04/26 06:05:28;;;;;;;;;;;;;;;12.01;100.00;98631.70;1643778;85;20134;-69
2022/04/26 06:07:55;;;;;;;;;;;;;;;12.06;100.00;98632.03;1648262;84;20182;-69
2022/04/26 06:10:22;;;;;;;;;;;;;;;12.14;100.00;98635.98;1635630;86;20162;-69
2022/04/26 06:12:49;;;;;;;;;;;;;;;12.27;100.00;98638.14;1628993;86;20107;-69
2022/04/26 06:15:17;;;;;;;;;;;;;;;12.32;100.00;98639.84;1631961;85;21119;-69
2022/04/26 06:17:44;;;;;;;;;;;;;;;12.39;100.00;98641.42;1622202;88;20104;-69
2022/04/26 06:20:12;;;;;;;;;;;;;;;12.51;100.00;98640.80;1634158;86;20137;-69
2022/04/26 06:22:40;;;;;;;;;;;;;;;12.62;100.00;98638.93;1646686;86;20091;-69
2022/04/26 06:25:08;;;;;;;;;;;;;;;12.68;100.00;98639.70;1650175;86;20216;-69
2022/04/26 06:27:35;;;;;;;;;;;;;;;12.69;100.00;98640.51;1649836;84;21156;-69
2022/04/26 06:30:04;;;;;;;;;;;;;;;12.72;100.00;98639.77;1663592;84;20113;-69
2022/04/26 06:32:32;;;;;;;;;;;;;;;12.80;100.00;98641.57;1613731;86;20186;-69
2022/04/26 06:34:58;;;;;;;;;;;;;;;12.86;100.00;98647.84;1615077;86;20108;-69
2022/04/26 06:37:25;;;;;;;;;;;;;;;12.90;100.00;98646.56;1610174;87;20179;-69
2022/04/26 06:39:52;;;;;;;;;;;;;;;12.95;100.00;98646.89;1615817;87;21151;-69
2022/04/26 06:42:18;;;;;;;;;;;;;;;13.05;100.00;98645.00;1629610;86;20176;-69
2022/04/26 06:44:47;;;;;;;;;;;;;;;13.12;100.00;98643.23;1643467;85;20476;-69
2022/04/26 06:47:13;;;;;;;;;;;;;;;13.27;100.00;98647.77;1663468;85;20226;-69
2022/04/26 06:49:39;;;;;;;;;;;;;;;13.42;100.00;98651.87;1634060;86;20199;-69
2022/04/26 06:52:08;;;;;;;;;;;;;;;13.44;100.00;98651.52;1619202;87;20128;-69
2022/04/26 06:54:34;;;;;;;;;;;;;;;13.35;100.00;98653.06;1591568;88;20106;-69
2022/04/26 06:57:01;;;;;;;;;;;;;;;13.35;100.00;98654.45;1648807;85;20102;-69
2022/04/26 06:59:28;;;;;;;;;;;;;;;13.40;100.00;98661.65;1627947;85;20157;-69
2022/04/26 07:01:55;;;;;;;;;;;;;;;13.48;100.00;98664.81;1639162;86;20209;-68
2022/04/26 07:04:23;;;;;;;;;;;;;;;13.61;100.00;98658.63;1624648;86;20228;-70
2022/04/26 07:06:50;;;;;;;;;;;;;;;13.72;100.00;98662.44;1652740;85;20182;-68
2022/04/26 07:09:18;;;;;;;;;;;;;;;13.85;100.00;98666.12;1622815;86;20397;-71
2022/04/26 07:11:46;;;;;;;;;;;;;;;13.93;100.00;98664.88;1644610;84;20170;-68
2022/04/26 07:14:13;;;;;;;;;;;;;;;13.92;100.00;98659.94;1628613;86;21099;-68
2022/04/26 07:16:40;;;;;;;;;;;;;;;13.91;100.00;98664.43;1660391;85;21841;-69
2022/04/26 07:19:07;;;;;;;;;;;;;;;13.95;100.00;98670.83;1647665;85;20129;-69
2022/04/26 07:21:36;;;;;;;;;;;;;;;14.04;100.00;98667.30;1656354;85;20202;-68
2022/04/26 07:24:05;;;;;;;;;;;;;;;14.12;100.00;98669.86;1658626;85;20453;-69
2022/04/26 07:26:31;;;;;;;;;;;;;;;14.12;100.00;98672.63;1638842;84;20152;-70
2022/04/26 07:28:58;;;;;;;;;;;;;;;14.05;100.00;98675.80;1663631;84;20495;-73
2022/04/26 07:31:26;;;;;;;;;;;;;;;14.02;100.00;98680.66;1655455;86;20206;-77
2022/04/26 07:36:38;;;;;;;;;;;;;;;14.05;100.00;98684.08;1598156;87;20212;-70
2022/04/26 07:39:06;;;;;;;;;;;;;;;14.29;100.00;98677.52;1593566;89;20184;-72
2022/04/26 07:41:33;;;;;;;;;;;;;;;14.56;100.00;98678.49;1656334;86;21164;-73
2022/04/26 07:44:00;;;;;;;;;;;;;;;14.69;100.00;98683.52;1650625;86;20139;-69
2022/04/26 07:46:27;;;;;;;;;;;;;;;14.60;100.00;98682.93;1660014;85;20078;-68
2022/04/26 07:48:55;;;;;;;;;;;;;;;14.64;100.00;98687.14;1653863;85;20622;-69
2022/04/26 07:51:22;;;;;;;;;;;;;;;14.62;100.00;98679.80;1645805;85;20438;-70
2022/04/26 07:53:49;;;;;;;;;;;;;;;14.60;100.00;98697.32;1631813;86;21178;-66
2022/04/26 07:56:15;;;;;;;;;;;;;;;14.58;100.00;98699.06;1651453;86;20155;-69
2022/04/26 07:58:43;;;;;;;;;;;;;;;14.65;100.00;98695.66;1656555;86;20094;-65
2022/04/26 08:01:14;;;;;;;;;;;;;;;14.80;100.00;98694.20;1650588;85;20119;-69
2022/04/26 08:03:41;;;;;;;;;;;;;;;14.91;100.00;98699.94;1601290;89;20172;-67
2022/04/26 08:06:08;;;;;;;;;;;;;;;14.98;100.00;98697.31;1659442;85;21259;-68
2022/04/26 08:08:34;;;;;;;;;;;;;;;15.09;100.00;98696.91;1655147;86;20086;-70
2022/04/26 08:11:03;;;;;;;;;;;;;;;15.23;100.00;98699.73;1655229;85;20094;-69
2022/04/26 08:13:30;;;;;;;;;;;;;;;15.46;100.00;98701.94;1644930;85;20259;-69
2022/04/26 08:15:58;;;;;;;;;;;;;;;15.76;100.00;98704.23;1640254;85;20162;-70
2022/04/26 08:18:24;;;;;;;;;;;;;;;16.00;100.00;98709.96;1653470;85;21153;-77
2022/04/26 08:20:51;;;;;;;;;;;;;;;16.09;100.00;98705.55;1659433;85;20090;-70
2022/04/26 08:23:19;;;;;;;;;;;;;;;16.09;100.00;98715.23;1653391;85;20128;-69
2022/04/26 08:28:33;;;;;;;;;;;;;;;15.55;92.64;98715.52;1653454;85;20115;-71
2022/04/26 08:31:01;;;;;;;;;;;;;;;15.29;97.98;98712.89;1649459;84;22734;-69
2022/04/26 08:33:30;;;;;;;;;;;;;;;15.12;94.11;98715.53;1634174;85;20165;-68
2022/04/26 08:35:56;;;;;;;;;;;;;;;14.97;97.63;98719.80;1653342;85;20174;-70
2022/04/26 08:38:23;;;;;;;;;;;;;;;14.83;98.97;98716.16;1664500;85;20294;-70
2022/04/26 08:40:49;;;;;;;;;;;;;;;14.71;100.00;98720.44;1654331;85;20120;-68
2022/04/26 08:43:17;;;;;;;;;;;;;;;14.69;100.00;98724.95;1656126;86;20607;-68
2022/04/26 08:45:46;;;;;;;;;;;;;;;14.77;100.00;98728.08;1652940;84;20426;-68
2022/04/26 08:51:00;;;;;;;;;;;;;;;14.78;100.00;98725.54;1657321;85;20113;-71
2022/04/26 08:53:28;;;;;;;;;;;;;;;14.64;100.00;98729.38;1652698;85;20095;-72
2022/04/26 08:56:01;;;;;;;;;;;;;;;14.45;100.00;98737.05;1649432;86;21212;-72
2022/04/26 08:58:32;;;;;;;;;;;;;;;14.31;100.00;98737.31;1654371;86;20099;-77
2022/04/26 09:01:18;;;;;;;;;;;;;;;14.17;100.00;98739.16;1655622;85;20147;-76
2022/04/26 09:03:55;;;;;;;;;;;;;;;13.98;100.00;98744.04;1636921;86;20494;-72
2022/04/26 09:06:34;;;;;;;;;;;;;;;13.79;100.00;98743.98;1654472;86;20406;-70
2022/04/26 09:09:18;;;;;;;;;;;;;;;13.61;100.00;98750.43;1662078;85;21179;-68
2022/04/26 09:11:48;;;;;;;;;;;;;;;13.48;100.00;98744.19;1657933;84;20102;-68
2022/04/26 09:14:35;;;;;;;;;;;;;;;13.59;100.00;98738.95;1635250;86;20087;-70
2022/04/26 09:17:07;;;;;;;;;;;;;;;14.02;100.00;98734.47;1636669;86;20601;-69
2022/04/26 09:19:49;;;;;;;;;;;;;;;14.69;100.00;98731.06;1624203;88;20464;-70
2022/04/26 09:22:18;;;;;;;;;;;;;;;15.34;100.00;98730.56;1625969;88;21192;-72
2022/04/26 09:24:56;;;;;;;;;;;;;;;15.99;100.00;98726.35;1650848;85;20174;-69
2022/04/26 09:27:24;;;;;;;;;;;;;;;16.31;100.00;98728.79;1656823;86;20135;-69
2022/04/26 09:29:51;;;;;;;;;;;;;;;16.45;100.00;98733.15;1657182;86;20434;-70
2022/04/26 09:32:19;;;;;;;;;;;;;;;16.38;100.00;98736.62;1646746;85;20227;-69
2022/04/26 09:34:46;;;;;;;;;;;;;;;16.27;100.00;98740.40;1631899;86;21133;-71
2022/04/26 09:37:12;;;;;;;;;;;;;;;16.04;100.00;98739.88;1653245;86;20183;-70
2022/04/26 09:39:41;;;;;;;;;;;;;;;15.72;100.00;98739.34;1644454;84;20134;-70
2022/04/26 09:42:09;;;;;;;;;;;;;;;15.35;100.00;98739.07;1655616;85;20099;-70
2022/04/26 09:44:40;;;;;;;;;;;;;;;15.00;100.00;98744.73;1665805;85;20163;-68
2022/04/26 09:47:11;;;;;;;;;;;;;;;14.75;100.00;98738.69;1624001;86;20139;-69
2022/04/26 09:49:39;;;;;;;;;;;;;;;14.60;100.00;98737.38;1663339;85;20128;-69
2022/04/26 09:52:13;;;;;;;;;;;;;;;14.49;100.00;98735.75;1625459;85;20495;-70
2022/04/26 09:54:37;;;;;;;;;;;;;;;14.43;100.00;98733.89;1663505;85;20086;-70
2022/04/26 09:57:09;;;;;;;;;;;;;;;14.54;100.00;98749.28;1656650;86;20505;-67
2022/04/26 09:59:44;;;;;;;;;;;;;;;14.88;100.00;98748.23;1646720;86;21733;-68
2022/04/26 10:02:08;;;;;;;;;;;;;;;15.47;100.00;98749.97;1635737;86;20496;-70
2022/04/26 10:04:37;;;;;;;;;;;;;;;16.17;100.00;98757.09;1620810;86;20197;-69
2022/04/26 10:07:08;;;;;;;;;;;;;;;16.82;100.00;98769.30;1603279;88;20109;-68
2022/04/26 10:09:35;;;;;;;;;;;;;;;17.29;100.00;98758.98;1639179;86;20185;-69
2022/04/26 10:12:03;;;;;;;;;;;;;;;17.55;91.86;98759.44;1633257;86;21228;-71
2022/04/26 10:14:33;;;;;;;;;;;;;;;17.58;100.00;98743.41;1622527;86;20190;-74
2022/04/26 10:16:59;;;;;;;;;;;;;;;17.50;97.79;98750.06;1656878;85;20234;-70
2022/04/26 10:19:40;;;;;;;;;;;;;;;17.22;100.00;98764.45;1643641;85;20290;-69
2022/04/26 10:22:10;;;;;;;;;;;;;;;16.77;92.99;98778.73;1642288;86;20130;-73
2022/04/26 10:24:39;;;;;;;;;;;;;;;16.23;97.07;98795.73;1633870;86;21298;-72
2022/04/26 10:27:24;;;;;;;;;;;;;;;15.80;100.00;98794.23;1603694;87;20326;-72
2022/04/26 10:29:48;;;;;;;;;;;;;;;15.36;99.91;98802.89;1648752;85;20150;-70
2022/04/26 10:32:40;;;;;;;;;;;;;;;14.99;100.00;98799.80;1631471;86;20476;-71
2022/04/26 10:35:29;;;;;;;;;;;;;;;14.77;100.00;98799.91;1598907;87;20139;-72
2022/04/26 10:38:14;;;;;;;;;;;;;;;14.69;100.00;98802.88;1622444;87;20129;-73
2022/04/26 10:41:05;;;;;;;;;;;;;;;14.61;100.00;98801.12;1610792;87;20197;-69
2022/04/26 10:43:31;;;;;;;;;;;;;;;14.57;100.00;98807.14;1621258;87;20212;-71
2022/04/26 10:46:12;;;;;;;;;;;;;;;14.61;100.00;98812.97;1617818;87;20101;-70
2022/04/26 10:48:39;;;;;;;;;;;;;;;14.64;100.00;98809.48;1600509;88;20219;-69
2022/04/26 10:51:37;;;;;;;;;;;;;;;14.66;100.00;98810.50;1606435;88;21265;-71
2022/04/26 10:54:05;;;;;;;;;;;;;;;14.67;100.00;98810.73;1608480;88;20652;-72
2022/04/26 10:56:32;;;;;;;;;;;;;;;14.67;100.00;98817.05;1646225;86;20516;-72
2022/04/26 10:58:59;;;;;;;;;;;;;;;14.71;100.00;98812.98;1629474;86;20121;-70
2022/04/26 11:01:27;;;;;;;;;;;;;;;14.70;100.00;98819.09;1626048;86;20236;-71
2022/04/26 11:03:56;;;;;;;;;;;;;;;14.65;100.00;98827.66;1632889;86;20147;-72
2022/04/26 11:06:37;;;;;;;;;;;;;;;14.52;99.39;98824.79;1599709;87;20107;-73
2022/04/26 11:09:07;;;;;;;;;;;;;;;14.39;96.38;98831.58;1602163;88;20131;-70
2022/04/26 11:11:50;;;;;;;;;;;;;;;14.27;95.49;98845.48;1653225;85;20248;-72
2022/04/26 11:14:20;;;;;;;;;;;;;;;14.28;100.00;98853.98;1649438;85;20102;-73
2022/04/26 11:17:02;;;;;;;;;;;;;;;14.44;100.00;98843.15;1643134;85;21167;-73
2022/04/26 11:19:31;;;;;;;;;;;;;;;14.64;100.00;98845.97;1650599;84;20185;-74
2022/04/26 11:22:07;;;;;;;;;;;;;;;15.05;100.00;98841.16;1647348;86;20153;-70
2022/04/26 11:30:09;;;;;;;;;;;;;;;15.71;95.44;98835.17;1646948;86;21234;-74
2022/04/26 11:32:44;;;;;;;;;;;;;;;15.87;100.00;98830.34;1632361;86;20615;-75
2022/04/26 11:35:14;;;;;;;;;;;;;;;15.99;91.93;98847.35;1623356;86;20127;-75
2022/04/26 11:37:49;;;;;;;;;;;;;;;16.09;91.50;98846.74;1633658;85;20188;-75
2022/04/26 11:40:33;;;;;;;;;;;;;;;16.32;85.32;98843.94;1626646;87;20213;-74
2022/04/26 11:43:15;;;;;;;;;;;;;;;16.44;83.02;98858.98;1636118;86;21159;-70
2022/04/26 11:45:44;;;;;;;;;;;;;;;16.23;85.18;98862.19;1639573;85;20189;-70
2022/04/26 11:48:12;;;;;;;;;;;;;;;15.99;87.64;98857.84;1649506;85;20167;-70
2022/04/26 11:50:42;;;;;;;;;;;;;;;15.88;95.85;98865.15;1644091;86;20193;-79
2022/04/26 11:53:10;;;;;;;;;;;;;;;15.76;93.33;98872.23;1640220;86;20214;-71
2022/04/26 11:55:40;;;;;;;;;;;;;;;15.62;95.23;98869.19;1642677;85;20164;-78
2022/04/26 11:58:09;;;;;;;;;;;;;;;15.47;97.17;98864.75;1638433;86;20174;-72
2022/04/26 12:00:38;;;;;;;;;;;;;;;15.38;97.98;98866.94;1651887;86;20183;-73
2022/04/26 12:03:06;;;;;;;;;;;;;;;15.32;93.72;98869.77;1647970;85;21772;-71
2022/04/26 12:05:37;;;;;;;;;;;;;;;15.20;91.15;98879.00;1635135;86;20487;-69
2022/04/26 12:08:12;;;;;;;;;;;;;;;14.99;92.25;98883.29;1653093;85;20149;-71
2022/04/26 12:10:39;;;;;;;;;;;;;;;14.79;93.47;98874.16;1654806;86;20539;-71
2022/04/26 12:13:06;;;;;;;;;;;;;;;14.71;97.22;98877.33;1652237;85;20551;-73
2022/04/26 12:15:40;;;;;;;;;;;;;;;14.69;95.98;98878.27;1655923;85;20161;-69
2022/04/26 12:18:15;;;;;;;;;;;;;;;14.64;96.25;98879.13;1647399;86;20189;-69
2022/04/26 12:20:59;;;;;;;;;;;;;;;14.63;97.60;98881.08;1569477;90;20250;-69
2022/04/26 12:23:29;;;;;;;;;;;;;;;14.65;98.67;98877.96;1569448;89;20140;-67
2022/04/26 12:26:03;;;;;;;;;;;;;;;14.65;97.79;98880.73;1579685;89;20496;-66
2022/04/26 12:28:30;;;;;;;;;;;;;;;14.60;95.45;98888.70;1575872;90;20149;-66
2022/04/26 12:31:01;;;;;;;;;;;;;;;14.52;97.14;98887.73;1622344;88;20141;-66
2022/04/26 12:33:36;;;;;;;;;;;;;;;14.45;93.20;98886.75;1648327;86;20089;-66
2022/04/26 12:36:04;;;;;;;;;;;;;;;14.44;98.70;98887.94;1627478;86;20193;-68
2022/04/26 12:38:33;;;;;;;;;;;;;;;14.49;97.77;98888.44;1656937;84;20504;-68
2022/04/26 12:41:06;;;;;;;;;;;;;;;14.57;97.58;98892.77;1636726;86;20201;-68
2022/04/26 12:43:33;;;;;;;;;;;;;;;14.54;94.51;98877.12;1636599;86;20179;-69
2022/04/26 12:46:02;;;;;;;;;;;;;;;14.50;98.15;98890.63;1635957;87;21160;-68
2022/04/26 12:51:21;;;;;;;;;;;;;;;14.21;99.37;98898.19;1630359;87;20451;-66
2022/04/26 12:53:49;;;;;;;;;;;;;;;14.05;98.84;98900.71;1632284;87;20246;-68
2022/04/26 12:56:17;;;;;;;;;;;;;;;13.91;100.00;98902.52;1637554;87;20179;-68
2022/04/26 12:58:45;;;;;;;;;;;;;;;13.83;100.00;98903.50;1633852;87;21174;-68
2022/04/26 13:01:13;;;;;;;;;;;;;;;13.76;99.47;98895.83;1636150;87;20127;-69
2022/04/26 13:03:42;;;;;;;;;;;;;;;13.77;100.00;98896.06;1631905;87;20175;-68
2022/04/26 13:06:14;;;;;;;;;;;;;;;13.82;100.00;98895.80;1634095;87;20174;-68
2022/04/26 13:08:45;;;;;;;;;;;;;;;13.85;100.00;98895.67;1630912;87;20203;-66
2022/04/26 13:11:12;;;;;;;;;;;;;;;13.86;100.00;98903.57;1635148;87;21794;-66
2022/04/26 13:13:39;;;;;;;;;;;;;;;13.88;100.00;98906.78;1635205;86;20139;-67
2022/04/26 13:16:06;;;;;;;;;;;;;;;13.94;100.00;98905.95;1635232;87;20183;-66
2022/04/26 13:18:33;;;;;;;;;;;;;;;13.97;100.00;98917.66;1636415;87;20983;-67
2022/04/26 13:21:01;;;;;;;;;;;;;;;13.95;99.61;98909.50;1635613;87;20191;-67
2022/04/26 13:23:30;;;;;;;;;;;;;;;13.91;100.00;98912.17;1634521;87;20181;-66
2022/04/26 13:25:58;;;;;;;;;;;;;;;13.85;99.99;98924.06;1635305;85;20589;-66
2022/04/26 13:28:25;;;;;;;;;;;;;;;13.72;100.00;98923.89;1612800;87;20159;-66
2022/04/26 13:30:52;;;;;;;;;;;;;;;13.59;100.00;98936.13;1624404;87;20216;-66
2022/04/26 13:33:21;;;;;;;;;;;;;;;13.45;100.00;98934.33;1630994;86;20156;-66
2022/04/26 13:35:49;;;;;;;;;;;;;;;13.40;100.00;98941.47;1586858;89;20111;-66
2022/04/26 13:38:16;;;;;;;;;;;;;;;13.34;100.00;98939.53;1625500;87;20208;-68
2022/04/26 13:40:43;;;;;;;;;;;;;;;13.21;100.00;98947.05;1592288;89;20190;-68
2022/04/26 13:43:10;;;;;;;;;;;;;;;13.08;100.00;98942.67;1622660;87;20388;-68
2022/04/26 13:45:36;;;;;;;;;;;;;;;12.99;100.00;98946.12;1583534;89;20215;-69
2022/04/26 13:48:10;;;;;;;;;;;;;;;12.90;100.00;98949.58;1603094;86;22087;-67
2022/04/26 13:50:39;;;;;;;;;;;;;;;12.79;100.00;98954.75;1625455;85;20653;-68
2022/04/26 13:53:06;;;;;;;;;;;;;;;12.71;100.00;98952.13;1651233;85;20483;-68
2022/04/26 13:55:33;;;;;;;;;;;;;;;12.62;100.00;98965.20;1633961;86;20204;-68
2022/04/26 13:58:05;;;;;;;;;;;;;;;12.54;100.00;98965.55;1656540;85;20551;-67
2022/04/26 14:00:34;;;;;;;;;;;;;;;12.41;100.00;98961.16;1662417;85;20176;-68
2022/04/26 14:03:01;;;;;;;;;;;;;;;12.26;100.00;98954.95;1660554;85;20230;-68
2022/04/26 14:05:28;;;;;;;;;;;;;;;12.12;100.00;98973.97;1655148;85;20212;-67
2022/04/26 14:07:56;;;;;;;;;;;;;;;12.03;100.00;98977.38;1634708;86;20219;-67
2022/04/26 14:10:24;;;;;;;;;;;;;;;11.99;100.00;98962.70;1635938;85;20096;-68
2022/04/26 14:12:57;;;;;;;;;;;;;;;11.96;100.00;98979.07;1618319;85;20185;-68
2022/04/26 14:23:43;;;;;;;;;;;;;;;11.70;100.00;99001.27;1634424;87;20140;-68
2022/04/26 14:26:11;;;;;;;;;;;;;;;11.68;100.00;99007.10;1633336;87;21074;-68
2022/04/26 14:28:37;;;;;;;;;;;;;;;11.71;100.00;99011.13;1636419;87;20184;-68
2022/04/26 14:31:05;;;;;;;;;;;;;;;11.72;100.00;99014.91;1632243;86;20184;-69
2022/04/26 14:33:33;;;;;;;;;;;;;;;11.74;100.00;99008.51;1635524;87;20127;-67
2022/04/26 14:36:01;;;;;;;;;;;;;;;11.75;100.00;99011.49;1633638;87;20135;-68
2022/04/26 14:38:28;;;;;;;;;;;;;;;11.77;100.00;99017.49;1632721;87;21157;-68
2022/04/26 14:40:54;;;;;;;;;;;;;;;11.79;100.00;99004.21;1634757;87;20482;-68
2022/04/26 14:43:21;;;;;;;;;;;;;;;11.80;100.00;99018.20;1631813;86;20216;-68
2022/04/26 14:45:50;;;;;;;;;;;;;;;11.80;100.00;99016.82;1633112;87;20183;-68
2022/04/26 14:48:17;;;;;;;;;;;;;;;11.78;100.00;99025.98;1632973;86;20116;-69
2022/04/26 14:50:46;;;;;;;;;;;;;;;11.75;100.00;99028.56;1631893;87;21161;-69
2022/04/26 14:53:14;;;;;;;;;;;;;;;11.72;100.00;99031.98;1631994;87;20176;-68
2022/04/26 14:55:41;;;;;;;;;;;;;;;11.66;100.00;99025.87;1634940;87;20482;-68
2022/04/26 14:58:10;;;;;;;;;;;;;;;11.63;100.00;99040.30;1634056;87;20179;-69
2022/04/26 15:00:36;;;;;;;;;;;;;;;11.63;100.00;99044.98;1635991;87;20183;-67
2022/04/26 15:03:04;;;;;;;;;;;;;;;11.61;100.00;99047.27;1635139;87;20220;-70
2022/04/26 15:05:31;;;;;;;;;;;;;;;11.62;100.00;99055.75;1633609;86;20624;-66
2022/04/26 15:10:45;;;;;;;;;;;;;;;11.56;100.00;99050.45;1632115;87;20155;-64
2022/04/26 15:18:43;;;;;;;;;;;;;;;11.43;100.00;99050.73;1657361;84;20157;-64
2022/04/26 15:21:13;;;;;;;;;;;;;;;11.41;100.00;99054.38;1660647;85;20210;-64
2022/04/26 15:23:41;;;;;;;;;;;;;;;11.39;100.00;99058.03;1662093;85;20528;-65
2022/04/26 15:26:11;;;;;;;;;;;;;;;11.38;100.00;99059.16;1661585;84;20142;-64
2022/04/26 15:28:39;;;;;;;;;;;;;;;11.38;100.00;99067.41;1658139;84;21134;-64
2022/04/26 15:31:07;;;;;;;;;;;;;;;11.34;100.00;99065.89;1662277;86;20113;-65
2022/04/26 15:33:35;;;;;;;;;;;;;;;11.32;100.00;99065.98;1662040;86;20089;-64
2022/04/26 15:36:02;;;;;;;;;;;;;;;11.31;100.00;99071.25;1661311;85;20363;-65
2022/04/26 15:38:29;;;;;;;;;;;;;;;11.30;100.00;99073.19;1656360;85;20101;-65
2022/04/26 15:41:01;;;;;;;;;;;;;;;11.29;100.00;99073.52;1657013;86;21228;-66
2022/04/26 15:43:24;;;;;;;;;;;;;;;11.28;100.00;99082.33;1656381;85;20725;-64
2022/04/26 15:45:50;;;;;;;;;;;;;;;11.27;100.00;99073.85;1655638;86;20135;-65
2022/04/26 15:48:18;;;;;;;;;;;;;;;11.29;100.00;99079.82;1657614;86;20134;-64
2022/04/26 15:50:46;;;;;;;;;;;;;;;11.29;100.00;99076.27;1662345;85;20102;-66
2022/04/26 15:53:12;;;;;;;;;;;;;;;11.28;100.00;99082.33;1654577;86;21107;-66
2022/04/26 15:55:40;;;;;;;;;;;;;;;11.29;100.00;99081.20;1637797;87;20125;-66
2022/04/26 15:58:08;;;;;;;;;;;;;;;11.32;100.00;99082.48;1640824;86;20111;-65
2022/04/26 16:00:40;;;;;;;;;;;;;;;11.33;100.00;99086.84;1656275;86;20153;-65
2022/04/26 16:03:09;;;;;;;;;;;;;;;11.33;100.00;99090.39;1658920;85;20453;-64
2022/04/26 16:05:37;;;;;;;;;;;;;;;11.33;100.00;99096.45;1658381;85;20129;-64
2022/04/26 16:08:04;;;;;;;;;;;;;;;11.28;100.00;99098.02;1661240;85;20468;-69
2022/04/26 16:21:36;;;;;;;;;;;;;;;11.15;100.00;99100.66;1653739;84;20228;-65
2022/04/26 16:24:04;;;;;;;;;;;;;;;11.13;100.00;99108.98;1656196;85;20458;-65
2022/04/26 16:26:34;;;;;;;;;;;;;;;11.11;100.00;99101.64;1646841;86;20908;-67
2022/04/26 16:29:04;;;;;;;;;;;;;;;11.07;100.00;99108.37;1660304;85;20162;-66
2022/04/26 16:31:40;;;;;;;;;;;;;;;11.03;100.00;99110.16;1605052;88;20143;-67
2022/04/26 16:34:08;;;;;;;;;;;;;;;11.03;100.00;99115.66;1614060;87;20422;-66
2022/04/26 16:36:42;;;;;;;;;;;;;;;11.03;100.00;99118.97;1652594;85;20436;-66
2022/04/26 16:39:08;;;;;;;;;;;;;;;11.02;100.00;99116.78;1643142;85;20106;-68
2022/04/26 16:41:40;;;;;;;;;;;;;;;11.02;100.00;99119.53;1660723;86;20129;-65
2022/04/26 16:44:20;;;;;;;;;;;;;;;11.00;100.00;99124.55;1636865;86;21279;-64
2022/04/26 16:46:46;;;;;;;;;;;;;;;11.00;100.00;99135.53;1638500;86;20442;-66
2022/04/26 16:49:16;;;;;;;;;;;;;;;10.99;100.00;99130.37;1631540;86;20134;-66
2022/04/26 16:51:53;;;;;;;;;;;;;;;11.00;100.00;99133.35;1663841;86;20157;-61
2022/04/26 16:54:19;;;;;;;;;;;;;;;11.01;100.00;99139.09;1660516;86;20145;-65
2022/04/26 16:56:49;;;;;;;;;;;;;;;10.98;100.00;99142.48;1656596;84;21868;-64
2022/04/26 16:59:20;;;;;;;;;;;;;;;10.96;100.00;99144.22;1664876;85;20552;-65
2022/04/26 17:01:48;;;;;;;;;;;;;;;10.95;100.00;99143.98;1663827;84;20947;-64
2022/04/26 17:04:17;;;;;;;;;;;;;;;10.94;100.00;99150.61;1660443;84;20751;-65
2022/04/26 17:06:50;;;;;;;;;;;;;;;10.93;100.00;99150.37;1663125;86;20197;-69
2022/04/26 17:09:20;;;;;;;;;;;;;;;10.94;100.00;99151.98;1662210;84;21133;-65
2022/04/26 17:11:52;;;;;;;;;;;;;;;10.99;100.00;99161.95;1670822;84;20115;-67